Time;durP1;ratioP1;P1;durP2;ratioP2;P2;SDS_P1;SDS_P2;PMS_P1;PMS_P2;Temp;Humidity;BMP_temperature;BMP_pressure;BME280_temperature;BME280_humidity;BME280_pressure;Samples;Min_cycle;Max_cycle;Signal;HPM_P1;HPM_P2
2022/11/20 00:00:53;;;;;;;27.40;16.10;;;;;;;;;;4990607;28;20237;-80
2022/11/20 00:03:21;;;;;;;26.40;18.00;;;;;;;;;;4992113;28;20232;-80
2022/11/20 00:05:48;;;;;;;27.67;16.93;;;;;;;;;;4990653;28;20236;-80
2022/11/20 00:08:15;;;;;;;28.00;16.63;;;;;;;;;;4991365;28;20199;-80
2022/11/20 00:10:42;;;;;;;28.40;15.93;;;;;;;;;;4991745;28;20243;-80
2022/11/20 00:13:09;;;;;;;25.97;17.27;;;;;;;;;;4991416;28;20243;-79
2022/11/20 00:15:36;;;;;;;26.60;15.43;;;;;;;;;;4991167;28;20231;-79
2022/11/20 00:18:05;;;;;;;25.17;15.37;;;;;;;;;;4991847;28;20216;-79
2022/11/20 00:20:32;;;;;;;27.50;16.30;;;;;;;;;;4990423;28;20197;-80
2022/11/20 00:22:59;;;;;;;26.00;15.67;;;;;;;;;;4990615;28;20725;-79
2022/11/20 00:25:26;;;;;;;24.73;15.33;;;;;;;;;;4985797;28;20211;-80
2022/11/20 00:27:53;;;;;;;26.67;16.43;;;;;;;;;;4989198;28;20204;-80
2022/11/20 00:30:20;;;;;;;22.30;14.53;;;;;;;;;;4984245;28;20231;-79
2022/11/20 00:32:47;;;;;;;26.50;15.00;;;;;;;;;;4991496;28;20583;-80
2022/11/20 00:35:16;;;;;;;23.70;15.10;;;;;;;;;;4993352;28;20713;-79
2022/11/20 00:37:43;;;;;;;22.93;15.20;;;;;;;;;;4995249;28;20239;-79
2022/11/20 00:40:10;;;;;;;25.50;15.00;;;;;;;;;;4995111;28;20204;-80
2022/11/20 00:42:37;;;;;;;23.63;15.50;;;;;;;;;;4994658;28;20632;-80
2022/11/20 00:45:05;;;;;;;28.03;15.27;;;;;;;;;;4995567;28;20212;-81
2022/11/20 00:47:32;;;;;;;27.17;15.17;;;;;;;;;;4995134;28;20231;-80
2022/11/20 00:49:59;;;;;;;23.70;14.70;;;;;;;;;;4994679;28;20576;-80
2022/11/20 00:52:27;;;;;;;21.10;14.03;;;;;;;;;;4994792;28;20723;-80
2022/11/20 00:54:54;;;;;;;20.17;13.20;;;;;;;;;;4995007;28;20614;-80
2022/11/20 00:57:21;;;;;;;24.50;14.63;;;;;;;;;;4995063;28;20327;-80
2022/11/20 00:59:48;;;;;;;20.90;13.20;;;;;;;;;;4993659;28;20226;-80
2022/11/20 01:02:16;;;;;;;23.33;13.43;;;;;;;;;;4988854;28;20233;-80
2022/11/20 01:04:43;;;;;;;22.03;13.37;;;;;;;;;;4975838;28;20212;-81
2022/11/20 01:07:10;;;;;;;21.67;13.63;;;;;;;;;;4975177;28;20243;-80
2022/11/20 01:09:38;;;;;;;21.43;13.80;;;;;;;;;;4989069;28;20227;-80
2022/11/20 01:12:06;;;;;;;22.23;14.87;;;;;;;;;;4982151;28;20298;-80
2022/11/20 01:14:33;;;;;;;18.67;13.60;;;;;;;;;;4975793;28;20229;-80
2022/11/20 01:17:00;;;;;;;21.57;14.30;;;;;;;;;;4974985;28;20243;-80
2022/11/20 01:19:27;;;;;;;20.77;13.30;;;;;;;;;;4987479;28;20208;-80
2022/11/20 01:21:55;;;;;;;22.63;14.13;;;;;;;;;;4983517;28;20240;-80
2022/11/20 01:24:22;;;;;;;24.33;14.30;;;;;;;;;;4975271;28;20248;-80
2022/11/20 01:26:51;;;;;;;24.13;14.83;;;;;;;;;;4989370;28;20232;-80
2022/11/20 01:29:19;;;;;;;23.50;15.00;;;;;;;;;;4993957;28;20208;-80
2022/11/20 01:31:47;;;;;;;21.97;14.90;;;;;;;;;;4992822;28;20232;-80
2022/11/20 01:34:15;;;;;;;24.17;14.57;;;;;;;;;;4990473;28;20243;-80
2022/11/20 01:36:43;;;;;;;17.27;12.93;;;;;;;;;;4992910;28;20243;-80
2022/11/20 01:39:12;;;;;;;20.23;13.83;;;;;;;;;;4982170;28;20204;-80
2022/11/20 01:44:39;;;;;;;22.83;14.30;;;;;;;;;;4975241;28;20223;-80
2022/11/20 01:47:08;;;;;;;22.07;14.93;;;;;;;;;;4974539;28;20243;-80
2022/11/20 01:49:38;;;;;;;20.13;13.63;;;;;;;;;;4990054;28;20584;-80
2022/11/20 01:52:06;;;;;;;24.37;14.77;;;;;;;;;;4981909;28;20267;-80
2022/11/20 01:54:37;;;;;;;22.00;14.57;;;;;;;;;;4986384;28;20707;-80
2022/11/20 01:57:06;;;;;;;23.67;14.13;;;;;;;;;;4992189;28;20244;-80
2022/11/20 01:59:33;;;;;;;25.67;14.90;;;;;;;;;;4992875;28;20215;-80
2022/11/20 02:02:00;;;;;;;23.77;14.83;;;;;;;;;;4990246;28;20235;-80
2022/11/20 02:04:29;;;;;;;26.00;14.57;;;;;;;;;;4994115;28;20234;-80
2022/11/20 02:06:59;;;;;;;25.63;16.07;;;;;;;;;;4992249;28;20243;-80
2022/11/20 02:09:26;;;;;;;26.67;14.57;;;;;;;;;;4993669;28;20196;-81
2022/11/20 02:11:53;;;;;;;23.23;14.63;;;;;;;;;;4974636;28;20247;-80
2022/11/20 02:14:20;;;;;;;26.80;14.80;;;;;;;;;;4974392;28;20255;-80
2022/11/20 02:16:48;;;;;;;28.90;15.70;;;;;;;;;;4987707;28;20228;-80
2022/11/20 02:19:20;;;;;;;23.57;14.43;;;;;;;;;;4985708;28;20230;-80
2022/11/20 02:21:50;;;;;;;26.37;15.23;;;;;;;;;;4993233;28;20231;-81
2022/11/20 02:24:19;;;;;;;26.47;15.00;;;;;;;;;;4992315;28;20700;-80
2022/11/20 02:26:50;;;;;;;28.10;16.00;;;;;;;;;;4992546;28;20739;-80
2022/11/20 02:29:19;;;;;;;23.70;15.07;;;;;;;;;;4993550;28;20208;-80
2022/11/20 02:31:46;;;;;;;29.47;15.77;;;;;;;;;;4992656;28;20247;-80
2022/11/20 02:34:13;;;;;;;26.80;15.83;;;;;;;;;;4990741;28;20236;-80
2022/11/20 02:36:41;;;;;;;26.43;15.27;;;;;;;;;;4990613;28;20335;-80
2022/11/20 02:39:09;;;;;;;24.80;14.60;;;;;;;;;;4992774;28;20205;-80
2022/11/20 02:41:39;;;;;;;28.80;15.47;;;;;;;;;;4992826;28;20239;-80
2022/11/20 02:44:06;;;;;;;24.60;14.53;;;;;;;;;;4984277;28;20242;-80
2022/11/20 02:46:34;;;;;;;24.37;14.40;;;;;;;;;;4985014;28;20244;-80
2022/11/20 02:49:02;;;;;;;23.90;14.13;;;;;;;;;;4973621;28;20673;-80
2022/11/20 02:51:29;;;;;;;23.27;14.33;;;;;;;;;;4973380;28;20241;-80
2022/11/20 02:53:56;;;;;;;24.00;14.97;;;;;;;;;;4981822;28;20735;-80
2022/11/20 02:56:23;;;;;;;21.13;13.87;;;;;;;;;;4987314;28;20232;-80
2022/11/20 02:58:51;;;;;;;22.77;14.43;;;;;;;;;;4973512;28;20209;-80
2022/11/20 03:01:18;;;;;;;27.63;14.67;;;;;;;;;;4992310;28;20231;-80
2022/11/20 03:03:48;;;;;;;22.43;14.17;;;;;;;;;;4991166;28;20224;-80
2022/11/20 03:06:15;;;;;;;24.87;14.97;;;;;;;;;;4992774;28;20224;-80
2022/11/20 03:08:42;;;;;;;27.23;15.07;;;;;;;;;;4993117;28;20212;-80
2022/11/20 03:11:09;;;;;;;25.20;14.97;;;;;;;;;;4992681;28;20232;-80
2022/11/20 03:13:37;;;;;;;24.47;14.40;;;;;;;;;;4992302;28;20255;-80
2022/11/20 03:16:10;;;;;;;27.47;15.63;;;;;;;;;;4992816;28;20224;-80
2022/11/20 03:18:37;;;;;;;26.00;15.30;;;;;;;;;;4992790;28;20208;-80
2022/11/20 03:21:04;;;;;;;25.73;15.33;;;;;;;;;;4993071;28;20243;-80
2022/11/20 03:23:32;;;;;;;24.73;15.30;;;;;;;;;;4997218;28;20234;-79
2022/11/20 03:26:09;;;;;;;27.37;15.80;;;;;;;;;;4979250;28;20616;-80
2022/11/20 03:28:36;;;;;;;27.23;15.83;;;;;;;;;;4978440;28;20200;-80
2022/11/20 03:31:06;;;;;;;26.17;14.97;;;;;;;;;;4978604;28;20232;-80
2022/11/20 03:33:34;;;;;;;24.67;14.83;;;;;;;;;;5003572;28;20227;-79
2022/11/20 03:36:02;;;;;;;23.87;13.97;;;;;;;;;;4983861;28;20240;-80
2022/11/20 03:38:30;;;;;;;21.13;13.87;;;;;;;;;;4987855;28;20201;-80
2022/11/20 03:40:59;;;;;;;22.77;14.80;;;;;;;;;;4991370;28;20603;-80
2022/11/20 03:43:26;;;;;;;27.67;15.63;;;;;;;;;;4990930;28;20228;-80
2022/11/20 03:45:53;;;;;;;21.13;13.50;;;;;;;;;;4991815;28;20240;-80
2022/11/20 03:48:20;;;;;;;22.23;14.30;;;;;;;;;;4991814;28;20212;-80
2022/11/20 03:50:49;;;;;;;25.70;15.17;;;;;;;;;;4991520;28;20731;-80
2022/11/20 03:53:16;;;;;;;25.40;14.77;;;;;;;;;;4991467;28;20228;-80
2022/11/20 03:55:43;;;;;;;27.30;16.23;;;;;;;;;;4982392;28;20233;-80
2022/11/20 03:58:10;;;;;;;26.97;15.57;;;;;;;;;;4972376;28;20665;-80
2022/11/20 04:00:37;;;;;;;29.70;17.10;;;;;;;;;;4972038;28;20232;-80
2022/11/20 04:03:04;;;;;;;29.17;15.87;;;;;;;;;;4976511;28;20839;-80
2022/11/20 04:05:32;;;;;;;25.70;14.40;;;;;;;;;;4991300;28;20678;-80
2022/11/20 04:08:00;;;;;;;25.77;15.07;;;;;;;;;;4991771;28;20208;-80
2022/11/20 04:10:27;;;;;;;29.37;16.60;;;;;;;;;;4993686;28;20602;-80
2022/11/20 04:12:54;;;;;;;28.07;15.73;;;;;;;;;;4992645;28;20262;-80
2022/11/20 04:15:21;;;;;;;25.13;15.40;;;;;;;;;;4990243;28;20673;-80
2022/11/20 04:17:48;;;;;;;24.43;15.60;;;;;;;;;;4995407;28;20687;-80
2022/11/20 04:20:15;;;;;;;25.27;16.23;;;;;;;;;;4993768;28;20285;-79
2022/11/20 04:22:43;;;;;;;26.20;15.53;;;;;;;;;;4993547;28;20219;-80
2022/11/20 04:25:11;;;;;;;27.60;15.77;;;;;;;;;;4995499;28;20204;-80
2022/11/20 04:27:38;;;;;;;33.23;17.87;;;;;;;;;;4995519;28;20232;-80
2022/11/20 04:30:05;;;;;;;31.63;17.80;;;;;;;;;;4995074;28;20212;-80
2022/11/20 04:32:33;;;;;;;26.70;15.53;;;;;;;;;;4986011;28;20239;-80
2022/11/20 04:35:00;;;;;;;35.10;17.33;;;;;;;;;;4986640;28;20197;-80
2022/11/20 04:37:27;;;;;;;30.10;15.33;;;;;;;;;;4995131;28;20235;-80
2022/11/20 04:39:54;;;;;;;27.90;15.50;;;;;;;;;;4995438;28;20220;-80
2022/11/20 04:42:31;;;;;;;27.70;15.67;;;;;;;;;;4993794;28;20224;-80
2022/11/20 04:44:58;;;;;;;27.40;15.47;;;;;;;;;;4987128;28;20215;-80
2022/11/20 04:47:25;;;;;;;31.90;16.50;;;;;;;;;;4995006;28;20236;-80
2022/11/20 04:49:53;;;;;;;29.07;16.03;;;;;;;;;;4994589;28;20673;-80
2022/11/20 04:52:20;;;;;;;27.83;15.63;;;;;;;;;;4994177;28;20577;-80
2022/11/20 04:54:47;;;;;;;34.83;16.27;;;;;;;;;;4993159;28;20675;-80
2022/11/20 04:57:15;;;;;;;31.73;16.50;;;;;;;;;;4975138;28;20716;-80
2022/11/20 04:59:43;;;;;;;31.83;16.67;;;;;;;;;;4975974;28;20213;-77
2022/11/20 05:02:10;;;;;;;34.80;15.67;;;;;;;;;;4978170;28;20232;-77
2022/11/20 05:04:38;;;;;;;37.93;17.87;;;;;;;;;;4994715;28;20243;-77
2022/11/20 05:07:05;;;;;;;30.23;15.40;;;;;;;;;;4994384;28;20788;-77
2022/11/20 05:09:32;;;;;;;31.93;17.00;;;;;;;;;;4994439;28;20235;-77
2022/11/20 05:11:59;;;;;;;32.50;16.10;;;;;;;;;;4993000;28;20241;-77
2022/11/20 05:14:26;;;;;;;31.37;16.80;;;;;;;;;;4994936;28;20589;-77
2022/11/20 05:16:54;;;;;;;31.73;16.57;;;;;;;;;;4975744;28;20237;-77
2022/11/20 05:19:22;;;;;;;36.03;17.03;;;;;;;;;;4974973;28;20677;-77
2022/11/20 05:21:49;;;;;;;39.20;17.27;;;;;;;;;;4974754;28;20592;-77
2022/11/20 05:24:16;;;;;;;33.20;15.73;;;;;;;;;;4993796;28;20224;-77
2022/11/20 05:26:43;;;;;;;31.40;16.10;;;;;;;;;;4978697;28;20256;-77
2022/11/20 05:29:11;;;;;;;29.10;15.10;;;;;;;;;;4994480;28;20208;-77
2022/11/20 05:31:40;;;;;;;33.43;16.37;;;;;;;;;;4994085;28;20239;-77
2022/11/20 05:34:08;;;;;;;35.20;16.37;;;;;;;;;;4991762;28;20763;-77
2022/11/20 05:36:35;;;;;;;33.40;16.97;;;;;;;;;;4993448;28;20302;-77
2022/11/20 05:39:03;;;;;;;34.70;16.60;;;;;;;;;;4994171;28;20579;-77
2022/11/20 05:41:30;;;;;;;32.97;17.20;;;;;;;;;;4993767;28;20626;-77
2022/11/20 05:43:57;;;;;;;30.20;16.00;;;;;;;;;;4993513;28;20279;-77
2022/11/20 05:46:24;;;;;;;30.50;15.47;;;;;;;;;;4979120;28;20267;-77
2022/11/20 05:48:51;;;;;;;33.17;16.53;;;;;;;;;;4974837;28;20220;-77
2022/11/20 05:51:20;;;;;;;31.43;16.50;;;;;;;;;;4982012;28;20232;-77
2022/11/20 05:53:47;;;;;;;34.70;16.37;;;;;;;;;;4983726;28;20234;-77
2022/11/20 05:56:15;;;;;;;30.13;16.10;;;;;;;;;;4973978;28;20240;-77
2022/11/20 05:58:43;;;;;;;37.30;17.03;;;;;;;;;;4974549;28;20205;-77
2022/11/20 06:01:11;;;;;;;33.13;15.53;;;;;;;;;;4979460;28;20227;-77
2022/11/20 06:03:39;;;;;;;30.10;15.00;;;;;;;;;;4993664;28;20597;-77
2022/11/20 06:06:07;;;;;;;30.57;14.73;;;;;;;;;;4993819;28;20255;-78
2022/11/20 06:08:35;;;;;;;33.83;16.17;;;;;;;;;;4993572;28;20665;-77
2022/11/20 06:11:06;;;;;;;35.37;16.63;;;;;;;;;;4991039;28;20223;-77
2022/11/20 06:13:33;;;;;;;34.10;15.43;;;;;;;;;;4987757;28;20232;-77
2022/11/20 06:16:00;;;;;;;44.67;16.57;;;;;;;;;;4993433;28;20238;-77
2022/11/20 06:18:28;;;;;;;42.83;16.87;;;;;;;;;;4989845;28;20219;-77
2022/11/20 06:21:01;;;;;;;35.10;15.83;;;;;;;;;;4989081;28;20235;-77
2022/11/20 06:23:29;;;;;;;31.00;16.30;;;;;;;;;;4991800;28;20638;-76
2022/11/20 06:25:57;;;;;;;37.93;17.13;;;;;;;;;;4991908;28;20235;-76
2022/11/20 06:28:24;;;;;;;34.90;15.43;;;;;;;;;;4993967;28;20223;-76
2022/11/20 06:30:51;;;;;;;40.77;16.17;;;;;;;;;;4992782;28;20246;-77
2022/11/20 06:33:18;;;;;;;34.67;14.47;;;;;;;;;;4992766;28;20232;-76
2022/11/20 06:35:45;;;;;;;29.03;15.00;;;;;;;;;;4992888;28;20637;-76
2022/11/20 06:38:12;;;;;;;40.40;15.57;;;;;;;;;;4993193;28;20215;-76
2022/11/20 06:40:41;;;;;;;34.17;14.47;;;;;;;;;;4993249;28;20232;-76
2022/11/20 06:43:09;;;;;;;40.63;15.37;;;;;;;;;;4992501;28;20598;-76
2022/11/20 06:45:37;;;;;;;32.30;15.07;;;;;;;;;;4993456;28;20236;-76
2022/11/20 06:48:04;;;;;;;33.37;14.47;;;;;;;;;;4993051;28;20211;-76
2022/11/20 06:50:31;;;;;;;35.03;14.90;;;;;;;;;;4992807;28;20208;-77
2022/11/20 06:52:58;;;;;;;40.30;15.70;;;;;;;;;;4992802;28;20240;-77
2022/11/20 06:55:25;;;;;;;35.67;14.87;;;;;;;;;;4992654;28;20676;-77
2022/11/20 06:57:52;;;;;;;39.80;15.67;;;;;;;;;;4992910;28;20207;-76
2022/11/20 07:00:21;;;;;;;35.23;15.87;;;;;;;;;;4991749;28;20200;-76
2022/11/20 07:02:48;;;;;;;30.37;13.90;;;;;;;;;;4993104;28;20220;-76
2022/11/20 07:05:16;;;;;;;33.67;14.83;;;;;;;;;;4992573;28;20572;-77
2022/11/20 07:07:43;;;;;;;28.37;13.97;;;;;;;;;;5007977;28;20192;-76
2022/11/20 07:10:10;;;;;;;26.17;13.33;;;;;;;;;;4993256;28;20208;-76
2022/11/20 07:12:38;;;;;;;25.50;13.47;;;;;;;;;;4992484;28;20239;-76
2022/11/20 07:15:05;;;;;;;26.87;12.97;;;;;;;;;;4992500;28;20208;-76
2022/11/20 07:17:34;;;;;;;32.80;14.70;;;;;;;;;;4990244;28;20240;-77
2022/11/20 07:20:01;;;;;;;24.47;14.07;;;;;;;;;;4989794;28;20660;-77
2022/11/20 07:22:29;;;;;;;30.50;13.37;;;;;;;;;;4997253;28;20218;-77
2022/11/20 07:24:56;;;;;;;26.67;12.50;;;;;;;;;;5001713;28;20196;-77
2022/11/20 07:27:23;;;;;;;26.27;13.87;;;;;;;;;;5009882;28;20227;-77
2022/11/20 07:29:50;;;;;;;26.43;13.10;;;;;;;;;;4991759;28;20650;-76
2022/11/20 07:32:17;;;;;;;32.90;14.57;;;;;;;;;;4977963;28;20236;-77
2022/11/20 07:34:46;;;;;;;23.83;12.40;;;;;;;;;;4973121;28;20212;-76
2022/11/20 07:37:13;;;;;;;21.00;12.43;;;;;;;;;;4988873;28;20256;-77
2022/11/20 07:39:40;;;;;;;23.67;12.73;;;;;;;;;;4990560;28;20211;-76
2022/11/20 07:42:08;;;;;;;22.83;12.17;;;;;;;;;;4986016;28;20231;-76
2022/11/20 07:44:35;;;;;;;23.17;11.93;;;;;;;;;;4977927;28;20247;-76
2022/11/20 07:47:02;;;;;;;23.23;11.97;;;;;;;;;;5001966;28;20238;-76
2022/11/20 07:49:29;;;;;;;27.67;11.93;;;;;;;;;;4993135;28;20204;-76
2022/11/20 07:51:58;;;;;;;23.83;12.63;;;;;;;;;;4977473;28;20259;-76
2022/11/20 07:54:25;;;;;;;25.80;12.73;;;;;;;;;;4978939;28;20231;-76
2022/11/20 07:56:52;;;;;;;24.87;12.37;;;;;;;;;;4982344;28;20228;-76
2022/11/20 07:59:19;;;;;;;22.63;13.37;;;;;;;;;;4970276;28;20208;-77
2022/11/20 08:01:46;;;;;;;28.40;13.53;;;;;;;;;;4972766;28;20232;-77
2022/11/20 08:04:15;;;;;;;29.00;13.13;;;;;;;;;;4972723;28;20233;-77
2022/11/20 08:06:43;;;;;;;27.97;13.37;;;;;;;;;;4979597;28;20275;-77
2022/11/20 08:09:11;;;;;;;24.17;12.43;;;;;;;;;;4990672;28;20215;-78
2022/11/20 08:14:34;;;;;;;19.70;11.60;;;;;;;;;;4950443;29;20268;-77
2022/11/20 08:17:02;;;;;;;21.57;11.80;;;;;;;;;;4980128;28;20235;-77
2022/11/20 08:19:29;;;;;;;22.60;12.67;;;;;;;;;;4991431;28;20208;-78
2022/11/20 08:21:56;;;;;;;27.13;13.67;;;;;;;;;;4977087;28;20319;-77
2022/11/20 08:24:26;;;;;;;23.17;12.57;;;;;;;;;;4972565;28;20252;-78
2022/11/20 08:26:53;;;;;;;25.17;13.20;;;;;;;;;;4972262;28;20236;-78
2022/11/20 08:29:20;;;;;;;25.20;12.83;;;;;;;;;;4972111;28;20213;-79
2022/11/20 08:31:47;;;;;;;26.70;12.17;;;;;;;;;;4971748;28;20237;-79
2022/11/20 08:34:14;;;;;;;22.47;12.20;;;;;;;;;;4972110;28;20237;-78
2022/11/20 08:36:41;;;;;;;23.97;13.47;;;;;;;;;;4966657;28;20597;-78
2022/11/20 08:39:08;;;;;;;24.40;13.47;;;;;;;;;;4970805;28;20682;-76
2022/11/20 08:41:37;;;;;;;31.87;14.53;;;;;;;;;;4983125;28;20242;-76
2022/11/20 08:44:05;;;;;;;29.97;14.57;;;;;;;;;;4999577;28;20224;-76
2022/11/20 08:46:34;;;;;;;27.30;13.90;;;;;;;;;;4988044;28;20233;-76
2022/11/20 08:49:01;;;;;;;28.33;14.27;;;;;;;;;;4971729;28;20214;-76
2022/11/20 08:51:28;;;;;;;28.90;15.57;;;;;;;;;;4978525;28;20231;-76
2022/11/20 08:53:55;;;;;;;32.10;15.57;;;;;;;;;;4972017;28;20240;-75
2022/11/20 08:56:22;;;;;;;33.23;16.50;;;;;;;;;;4982923;28;20238;-75
2022/11/20 08:58:51;;;;;;;31.63;14.80;;;;;;;;;;4995178;28;20213;-75
2022/11/20 09:01:18;;;;;;;32.03;15.37;;;;;;;;;;4986491;28;20298;-76
2022/11/20 09:03:46;;;;;;;29.00;15.00;;;;;;;;;;4975007;28;20229;-75
2022/11/20 09:06:13;;;;;;;35.67;18.17;;;;;;;;;;4975210;28;20236;-75
2022/11/20 09:08:40;;;;;;;35.23;17.43;;;;;;;;;;4975403;28;20219;-76
2022/11/20 09:11:08;;;;;;;39.47;17.80;;;;;;;;;;4975379;28;20226;-76
2022/11/20 09:13:36;;;;;;;29.70;15.03;;;;;;;;;;4975053;28;20228;-76
2022/11/20 09:16:05;;;;;;;28.00;14.80;;;;;;;;;;4974771;28;20248;-77
2022/11/20 09:18:32;;;;;;;25.67;14.23;;;;;;;;;;4974934;28;20652;-76
2022/11/20 09:21:00;;;;;;;30.93;16.30;;;;;;;;;;4981071;28;20236;-74
2022/11/20 09:23:27;;;;;;;33.33;15.90;;;;;;;;;;4994680;28;20227;-75
2022/11/20 09:25:55;;;;;;;31.60;15.10;;;;;;;;;;4993674;28;20236;-77
2022/11/20 09:28:22;;;;;;;26.20;15.13;;;;;;;;;;4975128;28;20206;-74
2022/11/20 09:30:49;;;;;;;25.43;13.17;;;;;;;;;;4974746;28;20239;-74
2022/11/20 09:33:18;;;;;;;20.63;12.43;;;;;;;;;;4975074;28;20239;-74
2022/11/20 09:35:45;;;;;;;26.93;14.93;;;;;;;;;;4982663;28;20240;-76
2022/11/20 09:38:13;;;;;;;29.40;16.57;;;;;;;;;;4994289;28;20212;-74
2022/11/20 09:40:45;;;;;;;25.23;14.23;;;;;;;;;;4993683;28;20692;-76
2022/11/20 09:43:15;;;;;;;23.70;14.00;;;;;;;;;;4993565;28;20268;-76
2022/11/20 09:45:58;;;;;;;25.13;13.83;;;;;;;;;;4982930;28;20234;-76
2022/11/20 09:48:40;;;;;;;24.57;14.07;;;;;;;;;;4978921;28;20189;-76
2022/11/20 09:51:13;;;;;;;22.70;13.97;;;;;;;;;;4964757;28;20239;-76
2022/11/20 09:53:46;;;;;;;23.20;14.63;;;;;;;;;;4974970;28;20243;-75
2022/11/20 09:56:13;;;;;;;26.90;14.53;;;;;;;;;;4986396;28;20242;-76
2022/11/20 09:58:42;;;;;;;24.77;13.00;;;;;;;;;;4994278;28;20211;-76
2022/11/20 10:01:11;;;;;;;25.37;14.13;;;;;;;;;;5003441;28;20268;-75
2022/11/20 10:03:41;;;;;;;28.03;16.17;;;;;;;;;;4993591;28;20227;-75
2022/11/20 10:06:12;;;;;;;21.37;13.27;;;;;;;;;;4993228;28;20330;-77
2022/11/20 10:08:43;;;;;;;27.10;14.13;;;;;;;;;;4992251;28;20207;-75
2022/11/20 10:11:15;;;;;;;29.80;15.10;;;;;;;;;;4993073;28;20234;-75
2022/11/20 10:13:50;;;;;;;28.10;15.00;;;;;;;;;;4994235;28;20224;-76
2022/11/20 10:16:23;;;;;;;24.70;13.87;;;;;;;;;;4993897;28;20238;-76
2022/11/20 10:18:56;;;;;;;24.20;14.33;;;;;;;;;;4993865;28;20243;-76
2022/11/20 10:21:32;;;;;;;24.77;15.30;;;;;;;;;;4993747;28;20233;-76
2022/11/20 10:24:10;;;;;;;28.07;15.47;;;;;;;;;;4993073;28;20222;-76
2022/11/20 10:26:41;;;;;;;23.57;13.20;;;;;;;;;;4993332;28;20281;-76
2022/11/20 10:29:11;;;;;;;17.30;12.07;;;;;;;;;;4992838;28;20221;-76
2022/11/20 10:31:39;;;;;;;20.73;13.27;;;;;;;;;;4974671;28;20260;-76
2022/11/20 10:34:08;;;;;;;18.23;11.70;;;;;;;;;;4992868;28;20239;-76
2022/11/20 10:36:40;;;;;;;20.00;12.00;;;;;;;;;;4993138;28;20245;-76
2022/11/20 10:39:09;;;;;;;19.47;11.70;;;;;;;;;;4993178;28;20207;-76
2022/11/20 10:41:39;;;;;;;21.60;12.50;;;;;;;;;;4993142;28;20236;-75
2022/11/20 10:44:07;;;;;;;20.77;13.27;;;;;;;;;;4993709;28;20224;-75
2022/11/20 10:46:38;;;;;;;18.97;11.87;;;;;;;;;;4993130;28;20253;-76
2022/11/20 10:49:07;;;;;;;19.10;12.03;;;;;;;;;;4993225;28;20206;-76
2022/11/20 10:51:38;;;;;;;16.67;10.63;;;;;;;;;;4993326;28;20243;-75
2022/11/20 10:54:14;;;;;;;17.60;10.53;;;;;;;;;;4993326;28;20235;-75
2022/11/20 10:56:42;;;;;;;18.17;10.83;;;;;;;;;;4995688;28;20249;-76
2022/11/20 10:59:20;;;;;;;17.70;11.07;;;;;;;;;;4993451;28;20218;-76
2022/11/20 11:01:53;;;;;;;17.23;10.60;;;;;;;;;;4993487;28;20239;-76
2022/11/20 11:04:35;;;;;;;16.87;11.17;;;;;;;;;;5011599;28;20239;-74
2022/11/20 11:07:08;;;;;;;16.30;10.57;;;;;;;;;;4994066;28;20240;-77
2022/11/20 11:09:37;;;;;;;12.13;9.27;;;;;;;;;;4995304;28;20200;-76
2022/11/20 11:12:07;;;;;;;16.53;10.83;;;;;;;;;;4993573;28;20235;-76
2022/11/20 11:14:43;;;;;;;15.43;10.47;;;;;;;;;;4994562;28;20239;-76
2022/11/20 11:17:19;;;;;;;16.97;10.87;;;;;;;;;;4993138;28;20868;-76
2022/11/20 11:19:46;;;;;;;14.17;10.50;;;;;;;;;;4992649;28;20214;-76
2022/11/20 11:22:19;;;;;;;16.33;10.97;;;;;;;;;;4992454;28;20236;-77
2022/11/20 11:24:53;;;;;;;17.30;12.20;;;;;;;;;;4993623;28;20212;-76
2022/11/20 11:27:20;;;;;;;14.17;10.03;;;;;;;;;;4992470;28;20247;-76
2022/11/20 11:29:47;;;;;;;15.47;11.53;;;;;;;;;;4993072;28;20222;-75
2022/11/20 11:32:16;;;;;;;18.00;12.13;;;;;;;;;;4992541;28;20633;-76
2022/11/20 11:34:43;;;;;;;18.73;11.40;;;;;;;;;;4993285;28;20219;-76
2022/11/20 11:37:14;;;;;;;17.47;10.77;;;;;;;;;;4992927;28;20281;-76
2022/11/20 11:39:43;;;;;;;16.07;9.50;;;;;;;;;;4992641;28;20244;-76
2022/11/20 11:42:14;;;;;;;15.87;9.87;;;;;;;;;;4992244;28;20241;-76
2022/11/20 11:47:32;;;;;;;17.20;10.77;;;;;;;;;;4992683;28;20364;-76
2022/11/20 11:50:03;;;;;;;14.23;10.60;;;;;;;;;;5013946;23;20719;-82
2022/11/20 11:52:30;;;;;;;17.07;10.93;;;;;;;;;;4992107;28;20234;-85
2022/11/20 11:55:00;;;;;;;14.63;10.07;;;;;;;;;;4992815;28;20216;-86
2022/11/20 11:57:30;;;;;;;15.60;10.17;;;;;;;;;;4992198;28;20774;-86
2022/11/20 12:00:02;;;;;;;17.20;9.70;;;;;;;;;;4980843;28;20222;-84
2022/11/20 12:02:33;;;;;;;14.50;10.07;;;;;;;;;;4972534;28;20244;-84
2022/11/20 12:05:02;;;;;;;14.33;9.90;;;;;;;;;;4973102;28;20197;-84
2022/11/20 12:07:36;;;;;;;13.97;9.97;;;;;;;;;;4975170;28;20282;-84
2022/11/20 12:10:05;;;;;;;13.93;9.57;;;;;;;;;;4953700;29;20232;-84
2022/11/20 12:12:36;;;;;;;15.83;10.23;;;;;;;;;;4953091;28;20240;-84
2022/11/20 12:15:04;;;;;;;13.90;10.20;;;;;;;;;;4953359;29;20216;-84
2022/11/20 12:17:31;;;;;;;15.23;10.37;;;;;;;;;;4953026;28;20252;-84
2022/11/20 12:19:58;;;;;;;12.47;9.00;;;;;;;;;;4953308;29;20230;-84
2022/11/20 12:22:30;;;;;;;14.10;9.87;;;;;;;;;;4953070;28;20236;-84
2022/11/20 12:25:01;;;;;;;13.53;8.87;;;;;;;;;;4953405;29;20216;-84
2022/11/20 12:27:45;;;;;;;11.77;8.07;;;;;;;;;;4953069;28;20241;-84
2022/11/20 12:30:13;;;;;;;13.17;9.53;;;;;;;;;;4953028;28;20291;-84
2022/11/20 12:32:48;;;;;;;14.40;9.10;;;;;;;;;;4959681;28;20213;-84
2022/11/20 12:35:22;;;;;;;12.50;9.50;;;;;;;;;;4995521;28;20199;-85
2022/11/20 12:37:51;;;;;;;15.97;8.87;;;;;;;;;;4967606;28;20207;-84
2022/11/20 12:40:25;;;;;;;12.90;9.07;;;;;;;;;;4995549;28;20232;-84
2022/11/20 12:45:55;;;;;;;15.43;8.73;;;;;;;;;;4978741;28;20247;-86
2022/11/20 12:48:59;;;;;;;12.43;8.83;;;;;;;;;;4996522;28;20212;-91
2022/11/20 12:51:51;;;;;;;12.57;9.13;;;;;;;;;;4995459;28;20650;-83
2022/11/20 12:54:36;;;;;;;13.83;10.00;;;;;;;;;;4985168;28;20223;-84
2022/11/20 12:57:15;;;;;;;13.90;10.17;;;;;;;;;;4987766;28;20239;-84
2022/11/20 13:00:05;;;;;;;13.97;10.63;;;;;;;;;;4984859;28;20306;-84
2022/11/20 13:02:37;;;;;;;12.87;9.30;;;;;;;;;;4965903;28;20237;-87
2022/11/20 13:05:11;;;;;;;13.97;9.77;;;;;;;;;;4974682;28;20208;-86
2022/11/20 13:07:41;;;;;;;15.53;10.93;;;;;;;;;;4975749;28;20877;-89
2022/11/20 13:10:36;;;;;;;14.27;10.30;;;;;;;;;;4976568;28;20235;-86
2022/11/20 13:13:14;;;;;;;15.00;9.70;;;;;;;;;;4955630;28;20318;-91
2022/11/20 13:15:51;;;;;;;11.60;9.47;;;;;;;;;;4956472;28;20237;-88
2022/11/20 13:18:18;;;;;;;13.70;9.30;;;;;;;;;;4956688;28;20197;-90
2022/11/20 13:20:46;;;;;;;14.53;9.43;;;;;;;;;;4968620;28;20236;-88
2022/11/20 13:23:24;;;;;;;14.90;10.37;;;;;;;;;;4976271;28;20205;-87
2022/11/20 13:25:52;;;;;;;12.90;9.43;;;;;;;;;;4975234;28;20236;-87
2022/11/20 13:28:28;;;;;;;13.53;9.70;;;;;;;;;;4975521;28;20681;-85
2022/11/20 13:30:57;;;;;;;16.80;11.20;;;;;;;;;;4975070;28;20270;-86
2022/11/20 13:33:27;;;;;;;14.83;9.97;;;;;;;;;;4975850;28;20236;-86
2022/11/20 13:35:57;;;;;;;13.13;8.70;;;;;;;;;;4973176;28;20238;-86
2022/11/20 13:38:24;;;;;;;18.00;10.83;;;;;;;;;;4975587;28;20201;-87
2022/11/20 13:40:55;;;;;;;18.83;13.73;;;;;;;;;;4975096;28;20242;-85
2022/11/20 13:43:36;;;;;;;17.23;12.60;;;;;;;;;;4974474;28;20208;-86
2022/11/20 13:46:06;;;;;;;17.07;12.33;;;;;;;;;;4974064;28;20243;-86
2022/11/20 13:48:34;;;;;;;13.73;10.70;;;;;;;;;;4974832;28;20668;-86
2022/11/20 13:51:08;;;;;;;13.47;9.67;;;;;;;;;;4974889;28;20232;-87
2022/11/20 13:53:58;;;;;;;15.63;10.37;;;;;;;;;;4975459;28;20216;-87
2022/11/20 13:56:27;;;;;;;14.90;9.67;;;;;;;;;;4974363;28;20233;-87
2022/11/20 13:58:59;;;;;;;14.07;9.83;;;;;;;;;;4975319;28;20235;-87
2022/11/20 14:01:31;;;;;;;13.57;9.73;;;;;;;;;;4974949;28;20248;-87
2022/11/20 14:03:58;;;;;;;16.20;10.60;;;;;;;;;;4975680;28;20212;-87
2022/11/20 14:06:28;;;;;;;12.50;9.30;;;;;;;;;;4974519;28;20236;-85
2022/11/20 14:08:55;;;;;;;13.53;9.10;;;;;;;;;;4974602;28;20232;-84
2022/11/20 14:11:24;;;;;;;11.77;8.80;;;;;;;;;;4974520;28;20236;-85
2022/11/20 14:13:55;;;;;;;11.73;9.00;;;;;;;;;;4974865;28;20268;-85
2022/11/20 14:16:23;;;;;;;11.37;8.77;;;;;;;;;;4974586;28;20248;-85
2022/11/20 14:18:51;;;;;;;17.63;9.33;;;;;;;;;;4974584;28;20239;-84
2022/11/20 14:21:26;;;;;;;15.47;9.40;;;;;;;;;;4956850;28;20239;-86
2022/11/20 14:26:29;;;;;;;15.00;9.53;;;;;;;;;;5279576;23;20231;-86
2022/11/20 14:28:56;;;;;;;13.87;9.40;;;;;;;;;;4987356;28;20255;-86
2022/11/20 14:31:25;;;;;;;13.47;9.20;;;;;;;;;;4987763;28;20582;-86
2022/11/20 14:33:54;;;;;;;13.47;9.50;;;;;;;;;;4995385;28;20234;-85
2022/11/20 14:36:23;;;;;;;13.50;9.50;;;;;;;;;;4995456;28;20231;-85
2022/11/20 14:38:50;;;;;;;12.87;8.90;;;;;;;;;;4994981;28;20803;-86
2022/11/20 14:41:18;;;;;;;11.60;8.80;;;;;;;;;;4994565;28;20232;-84
2022/11/20 14:43:47;;;;;;;13.57;9.07;;;;;;;;;;4995348;28;20219;-85